sensor_id;sensor_type;location;lat;lon;timestamp;pressure;altitude;pressure_sealevel;temperature;humidity
12801;BME280;6464;42.494;27.470;2022-11-15T00:01:16;102026.38;;;9.31;100.00
12801;BME280;6464;42.494;27.470;2022-11-15T00:03:53;102163.06;;;10.15;100.00
12801;BME280;6464;42.494;27.470;2022-11-15T00:06:20;102165.75;;;10.16;100.00
12801;BME280;6464;42.494;27.470;2022-11-15T00:08:48;102012.25;;;9.21;100.00
12801;BME280;6464;42.494;27.470;2022-11-15T00:11:17;102160.41;;;10.07;100.00
12801;BME280;6464;42.494;27.470;2022-11-15T00:13:44;102063.38;;;9.51;100.00
12801;BME280;6464;42.494;27.470;2022-11-15T00:16:12;102132.22;;;9.98;100.00
12801;BME280;6464;42.494;27.470;2022-11-15T00:18:40;102164.88;;;10.17;100.00
12801;BME280;6464;42.494;27.470;2022-11-15T00:21:10;102066.09;;;9.62;100.00
12801;BME280;6464;42.494;27.470;2022-11-15T00:23:38;102015.88;;;9.37;100.00
12801;BME280;6464;42.494;27.470;2022-11-15T00:26:06;102164.88;;;10.19;100.00
12801;BME280;6464;42.494;27.470;2022-11-15T00:28:35;102014.16;;;9.39;100.00
12801;BME280;6464;42.494;27.470;2022-11-15T00:31:04;102126.09;;;10.02;100.00
12801;BME280;6464;42.494;27.470;2022-11-15T00:33:33;102022.94;;;9.38;100.00
12801;BME280;6464;42.494;27.470;2022-11-15T00:36:01;102031.81;;;9.54;100.00
12801;BME280;6464;42.494;27.470;2022-11-15T00:38:34;102084.66;;;9.78;100.00
12801;BME280;6464;42.494;27.470;2022-11-15T00:41:03;102136.69;;;10.10;100.00
12801;BME280;6464;42.494;27.470;2022-11-15T00:43:32;102051.13;;;9.53;100.00
12801;BME280;6464;42.494;27.470;2022-11-15T00:46:01;102112.91;;;9.99;100.00
12801;BME280;6464;42.494;27.470;2022-11-15T00:48:29;102121.75;;;10.06;100.00
12801;BME280;6464;42.494;27.470;2022-11-15T00:50:57;102096.16;;;9.87;100.00
12801;BME280;6464;42.494;27.470;2022-11-15T00:53:25;101992.03;;;9.16;100.00
12801;BME280;6464;42.494;27.470;2022-11-15T00:55:52;102091.66;;;9.73;100.00
12801;BME280;6464;42.494;27.470;2022-11-15T00:58:20;102060.75;;;9.49;100.00
12801;BME280;6464;42.494;27.470;2022-11-15T05:02:18;101831.69;;;8.26;100.00
12801;BME280;6464;42.494;27.470;2022-11-15T05:05:27;101955.13;;;9.08;100.00
12801;BME280;6464;42.494;27.470;2022-11-15T05:07:55;101851.19;;;8.46;100.00
12801;BME280;6464;42.494;27.470;2022-11-15T05:10:25;101827.38;;;8.33;100.00
12801;BME280;6464;42.494;27.470;2022-11-15T05:12:57;101826.47;;;8.31;100.00
12801;BME280;6464;42.494;27.470;2022-11-15T05:18:13;101882.13;;;8.78;100.00
12801;BME280;6464;42.494;27.470;2022-11-15T05:20:42;101961.44;;;9.29;100.00
12801;BME280;6464;42.494;27.470;2022-11-15T05:23:23;101819.63;;;8.43;100.00
12801;BME280;6464;42.494;27.470;2022-11-15T05:26:01;101969.41;;;9.39;100.00
12801;BME280;6464;42.494;27.470;2022-11-15T05:28:30;101916.56;;;9.12;100.00
12801;BME280;6464;42.494;27.470;2022-11-15T05:31:16;101810.06;;;8.53;100.00
12801;BME280;6464;42.494;27.470;2022-11-15T05:37:05;101966.00;;;9.62;100.00
12801;BME280;6464;42.494;27.470;2022-11-15T05:39:33;101985.34;;;9.64;100.00
12801;BME280;6464;42.494;27.470;2022-11-15T05:42:05;101975.75;;;9.75;100.00
12801;BME280;6464;42.494;27.470;2022-11-15T05:44:39;101948.38;;;9.51;100.00
12801;BME280;6464;42.494;27.470;2022-11-15T05:47:11;101941.44;;;9.64;100.00
12801;BME280;6464;42.494;27.470;2022-11-15T05:49:56;101906.13;;;9.27;100.00
12801;BME280;6464;42.494;27.470;2022-11-15T05:52:30;101997.75;;;9.83;100.00
12801;BME280;6464;42.494;27.470;2022-11-15T05:55:00;101910.59;;;9.40;100.00
12801;BME280;6464;42.494;27.470;2022-11-15T05:57:31;101999.53;;;9.89;100.00
12801;BME280;6464;42.494;27.470;2022-11-15T06:00:11;101985.50;;;9.94;100.00
12801;BME280;6464;42.494;27.470;2022-11-15T06:02:42;101897.34;;;9.28;100.00
12801;BME280;6464;42.494;27.470;2022-11-15T06:05:13;101863.00;;;9.02;100.00
12801;BME280;6464;42.494;27.470;2022-11-15T06:07:45;101929.06;;;9.51;100.00
12801;BME280;6464;42.494;27.470;2022-11-15T06:10:14;101911.47;;;9.39;100.00
12801;BME280;6464;42.494;27.470;2022-11-15T06:13:00;101944.06;;;9.66;100.00
12801;BME280;6464;42.494;27.470;2022-11-15T06:15:54;101886.84;;;9.31;100.00
12801;BME280;6464;42.494;27.470;2022-11-15T06:18:24;101941.50;;;9.81;100.00
12801;BME280;6464;42.494;27.470;2022-11-15T06:23:51;101930.13;;;9.88;100.00
12801;BME280;6464;42.494;27.470;2022-11-15T06:29:08;101939.81;;;9.95;100.00
12801;BME280;6464;42.494;27.470;2022-11-15T06:31:38;101963.66;;;10.24;100.00
12801;BME280;6464;42.494;27.470;2022-11-15T06:34:08;101980.41;;;10.43;100.00
12801;BME280;6464;42.494;27.470;2022-11-15T06:36:43;101976.91;;;10.43;100.00
12801;BME280;6464;42.494;27.470;2022-11-15T06:42:31;101979.25;;;9.75;100.00
12801;BME280;6464;42.494;27.470;2022-11-15T06:45:34;102041.75;;;10.05;100.00
12801;BME280;6464;42.494;27.470;2022-11-15T06:50:52;101960.72;;;9.56;100.00
12801;BME280;6464;42.494;27.470;2022-11-15T06:53:20;101938.72;;;9.50;100.00
12801;BME280;6464;42.494;27.470;2022-11-15T06:55:51;102062.91;;;10.12;100.00
12801;BME280;6464;42.494;27.470;2022-11-15T06:58:20;101945.78;;;9.55;100.00
12801;BME280;6464;42.494;27.470;2022-11-15T07:00:48;102047.06;;;10.15;100.00
12801;BME280;6464;42.494;27.470;2022-11-15T07:03:16;101929.09;;;9.52;100.00
12801;BME280;6464;42.494;27.470;2022-11-15T07:05:51;101989.84;;;9.85;100.00
12801;BME280;6464;42.494;27.470;2022-11-15T07:08:19;101945.75;;;9.50;100.00
12801;BME280;6464;42.494;27.470;2022-11-15T07:10:46;101997.78;;;9.95;100.00
12801;BME280;6464;42.494;27.470;2022-11-15T07:13:15;101997.78;;;9.92;100.00
12801;BME280;6464;42.494;27.470;2022-11-15T07:15:44;102008.28;;;9.86;100.00
12801;BME280;6464;42.494;27.470;2022-11-15T07:18:20;101868.31;;;9.11;100.00
12801;BME280;6464;42.494;27.470;2022-11-15T07:20:50;101893.91;;;9.38;100.00
12801;BME280;6464;42.494;27.470;2022-11-15T07:23:24;101967.06;;;9.99;100.00
12801;BME280;6464;42.494;27.470;2022-11-15T07:26:32;101988.19;;;10.08;100.00
12801;BME280;6464;42.494;27.470;2022-11-15T07:29:08;101917.75;;;9.67;100.00
12801;BME280;6464;42.494;27.470;2022-11-15T07:31:42;101866.72;;;9.41;100.00
12801;BME280;6464;42.494;27.470;2022-11-15T07:34:10;102008.53;;;10.35;100.00
12801;BME280;6464;42.494;27.470;2022-11-15T07:36:38;101900.28;;;9.92;100.00
12801;BME280;6464;42.494;27.470;2022-11-15T07:39:08;102030.63;;;10.86;100.00
12801;BME280;6464;42.494;27.470;2022-11-15T07:41:38;102035.91;;;10.91;100.00
12801;BME280;6464;42.494;27.470;2022-11-15T07:44:05;101984.88;;;10.75;100.00
12801;BME280;6464;42.494;27.470;2022-11-15T07:46:33;101985.78;;;10.98;100.00
12801;BME280;6464;42.494;27.470;2022-11-15T07:49:03;102028.88;;;10.97;100.00
12801;BME280;6464;42.494;27.470;2022-11-15T07:51:30;101960.22;;;10.68;100.00
12801;BME280;6464;42.494;27.470;2022-11-15T07:53:58;101927.69;;;10.49;100.00
12801;BME280;6464;42.494;27.470;2022-11-15T07:56:26;101980.50;;;11.07;100.00
12801;BME280;6464;42.494;27.470;2022-11-15T07:58:57;102025.38;;;11.18;100.00
12801;BME280;6464;42.494;27.470;2022-11-15T08:01:25;102009.53;;;11.04;100.00
12801;BME280;6464;42.494;27.470;2022-11-15T08:06:45;101866.13;;;10.53;100.00
12801;BME280;6464;42.494;27.470;2022-11-15T08:09:32;101956.72;;;11.00;100.00
12801;BME280;6464;42.494;27.470;2022-11-15T08:12:05;101878.47;;;10.50;100.00
12801;BME280;6464;42.494;27.470;2022-11-15T08:14:35;101938.25;;;10.65;100.00
12801;BME280;6464;42.494;27.470;2022-11-15T08:27:30;101941.72;;;11.37;100.00
12801;BME280;6464;42.494;27.470;2022-11-15T08:30:00;101910.97;;;10.95;100.00
12801;BME280;6464;42.494;27.470;2022-11-15T08:32:31;102057.88;;;11.95;100.00
12801;BME280;6464;42.494;27.470;2022-11-15T08:35:06;102052.53;;;12.07;100.00
12801;BME280;6464;42.494;27.470;2022-11-15T08:37:34;102065.66;;;12.37;100.00
12801;BME280;6464;42.494;27.470;2022-11-15T08:40:10;101930.28;;;11.21;100.00
12801;BME280;6464;42.494;27.470;2022-11-15T08:43:05;101932.88;;;11.56;100.00
12801;BME280;6464;42.494;27.470;2022-11-15T08:45:55;102035.47;;;12.71;100.00
12801;BME280;6464;42.494;27.470;2022-11-15T08:48:23;102027.44;;;12.85;100.00
12801;BME280;6464;42.494;27.470;2022-11-15T08:50:54;102020.75;;;12.29;100.00
12801;BME280;6464;42.494;27.470;2022-11-15T08:53:24;102031.25;;;12.44;100.00
12801;BME280;6464;42.494;27.470;2022-11-15T08:55:54;102111.97;;;13.19;100.00
12801;BME280;6464;42.494;27.470;2022-11-15T08:58:30;102105.13;;;13.99;100.00
12801;BME280;6464;42.494;27.470;2022-11-15T09:00:58;102077.84;;;13.88;100.00
12801;BME280;6464;42.494;27.470;2022-11-15T09:03:30;101990.47;;;12.73;100.00
12801;BME280;6464;42.494;27.470;2022-11-15T09:06:01;102034.91;;;13.49;100.00
12801;BME280;6464;42.494;27.470;2022-11-15T09:08:30;102066.88;;;13.29;100.00
12801;BME280;6464;42.494;27.470;2022-11-15T09:11:04;102044.72;;;13.38;100.00
12801;BME280;6464;42.494;27.470;2022-11-15T09:13:33;102088.69;;;13.60;100.00
12801;BME280;6464;42.494;27.470;2022-11-15T09:16:04;102074.53;;;13.65;100.00
12801;BME280;6464;42.494;27.470;2022-11-15T09:18:34;102077.56;;;13.14;100.00
12801;BME280;6464;42.494;27.470;2022-11-15T09:21:11;102094.38;;;13.11;100.00
12801;BME280;6464;42.494;27.470;2022-11-15T09:23:39;102094.72;;;13.79;100.00
12801;BME280;6464;42.494;27.470;2022-11-15T09:29:08;102067.78;;;13.24;100.00
12801;BME280;6464;42.494;27.470;2022-11-15T09:31:40;102039.53;;;13.20;100.00
12801;BME280;6464;42.494;27.470;2022-11-15T09:34:09;102023.41;;;13.49;100.00
12801;BME280;6464;42.494;27.470;2022-11-15T09:36:37;102126.88;;;13.40;100.00
12801;BME280;6464;42.494;27.470;2022-11-15T09:39:05;102122.03;;;13.86;100.00
12801;BME280;6464;42.494;27.470;2022-11-15T09:41:50;101963.63;;;13.25;100.00
12801;BME280;6464;42.494;27.470;2022-11-15T09:44:41;102025.84;;;13.73;100.00
12801;BME280;6464;42.494;27.470;2022-11-15T09:49:51;102069.66;;;14.06;100.00
12801;BME280;6464;42.494;27.470;2022-11-15T09:52:21;102092.44;;;14.27;100.00
12801;BME280;6464;42.494;27.470;2022-11-15T09:54:49;102176.91;;;15.32;100.00
12801;BME280;6464;42.494;27.470;2022-11-15T09:57:20;102038.09;;;13.82;100.00
12801;BME280;6464;42.494;27.470;2022-11-15T09:59:58;102041.28;;;14.13;100.00
12801;BME280;6464;42.494;27.470;2022-11-15T10:02:41;102079.63;;;16.62;100.00
12801;BME280;6464;42.494;27.470;2022-11-15T10:05:11;102239.53;;;16.11;100.00
12801;BME280;6464;42.494;27.470;2022-11-15T10:07:46;102188.56;;;15.25;100.00
12801;BME280;6464;42.494;27.470;2022-11-15T10:10:23;102245.31;;;15.81;100.00
12801;BME280;6464;42.494;27.470;2022-11-15T10:12:54;102112.78;;;14.25;100.00
12801;BME280;6464;42.494;27.470;2022-11-15T10:15:26;102064.34;;;14.08;100.00
12801;BME280;6464;42.494;27.470;2022-11-15T10:18:12;102114.47;;;15.02;100.00
12801;BME280;6464;42.494;27.470;2022-11-15T10:20:47;102092.28;;;15.06;100.00
12801;BME280;6464;42.494;27.470;2022-11-15T10:23:16;102157.47;;;15.30;100.00
12801;BME280;6464;42.494;27.470;2022-11-15T10:25:44;102175.91;;;15.40;100.00
12801;BME280;6464;42.494;27.470;2022-11-15T10:28:21;102062.19;;;15.58;100.00
12801;BME280;6464;42.494;27.470;2022-11-15T10:30:52;102219.63;;;15.81;100.00
12801;BME280;6464;42.494;27.470;2022-11-15T10:33:31;102077.84;;;15.22;100.00
12801;BME280;6464;42.494;27.470;2022-11-15T10:36:23;102169.56;;;17.69;100.00
12801;BME280;6464;42.494;27.470;2022-11-15T10:38:56;102227.75;;;16.73;100.00
12801;BME280;6464;42.494;27.470;2022-11-15T10:41:38;102237.94;;;16.01;100.00
12801;BME280;6464;42.494;27.470;2022-11-15T10:44:20;102158.44;;;15.81;100.00
12801;BME280;6464;42.494;27.470;2022-11-15T10:49:54;102195.59;;;16.35;100.00
12801;BME280;6464;42.494;27.470;2022-11-15T10:52:21;102250.63;;;18.04;100.00
12801;BME280;6464;42.494;27.470;2022-11-15T10:54:52;102176.19;;;16.30;100.00
12801;BME280;6464;42.494;27.470;2022-11-15T10:57:22;102206.88;;;16.00;100.00
12801;BME280;6464;42.494;27.470;2022-11-15T10:59:53;102273.91;;;18.33;100.00
12801;BME280;6464;42.494;27.470;2022-11-15T11:02:31;102280.44;;;17.03;100.00
12801;BME280;6464;42.494;27.470;2022-11-15T11:05:00;102240.19;;;17.54;100.00
12801;BME280;6464;42.494;27.470;2022-11-15T11:07:28;102147.75;;;17.53;100.00
12801;BME280;6464;42.494;27.470;2022-11-15T11:10:02;102238.06;;;17.31;100.00
12801;BME280;6464;42.494;27.470;2022-11-15T11:12:32;102282.34;;;18.50;100.00
12801;BME280;6464;42.494;27.470;2022-11-15T11:15:02;102199.88;;;18.36;100.00
12801;BME280;6464;42.494;27.470;2022-11-15T11:17:51;102271.88;;;18.77;100.00
12801;BME280;6464;42.494;27.470;2022-11-15T11:20:27;102153.91;;;16.78;100.00
12801;BME280;6464;42.494;27.470;2022-11-15T11:23:18;102217.75;;;16.84;100.00
12801;BME280;6464;42.494;27.470;2022-11-15T11:25:51;102089.69;;;15.55;100.00
12801;BME280;6464;42.494;27.470;2022-11-15T11:28:36;102084.19;;;16.57;100.00
12801;BME280;6464;42.494;27.470;2022-11-15T11:31:17;102156.22;;;16.05;100.00
12801;BME280;6464;42.494;27.470;2022-11-15T11:34:00;102133.97;;;15.56;100.00
12801;BME280;6464;42.494;27.470;2022-11-15T11:36:53;102035.75;;;15.47;100.00
12801;BME280;6464;42.494;27.470;2022-11-15T11:39:31;102150.69;;;15.67;100.00
12801;BME280;6464;42.494;27.470;2022-11-15T11:42:13;102114.38;;;15.08;100.00
12801;BME280;6464;42.494;27.470;2022-11-15T11:44:52;102080.88;;;14.98;100.00
12801;BME280;6464;42.494;27.470;2022-11-15T11:47:31;102014.13;;;14.62;100.00
12801;BME280;6464;42.494;27.470;2022-11-15T11:50:11;102014.03;;;14.68;100.00
12801;BME280;6464;42.494;27.470;2022-11-15T11:52:53;102021.38;;;14.51;100.00
12801;BME280;6464;42.494;27.470;2022-11-15T11:55:24;102044.00;;;15.32;100.00
12801;BME280;6464;42.494;27.470;2022-11-15T11:58:02;102091.47;;;16.04;100.00
12801;BME280;6464;42.494;27.470;2022-11-15T12:00:33;102121.13;;;15.86;100.00
12801;BME280;6464;42.494;27.470;2022-11-15T12:03:11;102029.25;;;15.66;100.00
12801;BME280;6464;42.494;27.470;2022-11-15T12:05:44;102142.97;;;16.50;100.00
12801;BME280;6464;42.494;27.470;2022-11-15T12:08:44;101977.00;;;14.60;100.00
12801;BME280;6464;42.494;27.470;2022-11-15T12:11:15;101961.66;;;14.78;100.00
12801;BME280;6464;42.494;27.470;2022-11-15T12:13:49;102060.28;;;15.67;100.00
12801;BME280;6464;42.494;27.470;2022-11-15T12:16:22;101921.50;;;14.39;100.00
12801;BME280;6464;42.494;27.470;2022-11-15T12:18:54;101931.22;;;14.97;100.00
12801;BME280;6464;42.494;27.470;2022-11-15T12:21:31;102048.91;;;16.88;100.00
12801;BME280;6464;42.494;27.470;2022-11-15T12:24:03;102021.47;;;16.44;100.00
12801;BME280;6464;42.494;27.470;2022-11-15T12:26:35;101942.78;;;15.44;100.00
12801;BME280;6464;42.494;27.470;2022-11-15T12:29:11;102076.78;;;17.12;100.00
12801;BME280;6464;42.494;27.470;2022-11-15T12:31:45;102100.97;;;16.61;100.00
12801;BME280;6464;42.494;27.470;2022-11-15T12:34:40;102008.63;;;17.00;100.00
12801;BME280;6464;42.494;27.470;2022-11-15T12:40:28;102149.31;;;17.97;100.00
12801;BME280;6464;42.494;27.470;2022-11-15T12:45:54;102107.09;;;17.08;100.00
12801;BME280;6464;42.494;27.470;2022-11-15T12:48:52;102069.31;;;16.04;100.00
12801;BME280;6464;42.494;27.470;2022-11-15T12:57:59;101977.13;;;16.41;100.00
12801;BME280;6464;42.494;27.470;2022-11-15T13:00:55;102093.13;;;18.94;100.00
12801;BME280;6464;42.494;27.470;2022-11-15T13:10:49;101987.13;;;17.42;100.00
12801;BME280;6464;42.494;27.470;2022-11-15T13:16:17;102150.78;;;20.10;100.00
12801;BME280;6464;42.494;27.470;2022-11-15T13:19:03;101990.69;;;18.36;100.00
12801;BME280;6464;42.494;27.470;2022-11-15T13:21:31;102056.19;;;19.60;100.00
12801;BME280;6464;42.494;27.470;2022-11-15T13:24:17;102075.50;;;19.69;100.00
12801;BME280;6464;42.494;27.470;2022-11-15T13:27:12;102071.66;;;19.23;100.00
12801;BME280;6464;42.494;27.470;2022-11-15T13:29:44;102010.53;;;20.13;100.00
12801;BME280;6464;42.494;27.470;2022-11-15T13:32:25;102061.16;;;18.91;100.00
12801;BME280;6464;42.494;27.470;2022-11-15T13:34:54;102053.22;;;18.29;100.00
12801;BME280;6464;42.494;27.470;2022-11-15T13:37:31;102068.03;;;18.98;100.00
12801;BME280;6464;42.494;27.470;2022-11-15T13:42:50;102045.34;;;19.11;100.00
12801;BME280;6464;42.494;27.470;2022-11-15T13:45:32;101997.53;;;17.84;100.00
12801;BME280;6464;42.494;27.470;2022-11-15T13:48:11;101900.34;;;16.96;100.00
12801;BME280;6464;42.494;27.470;2022-11-15T13:50:44;101958.03;;;19.10;100.00
12801;BME280;6464;42.494;27.470;2022-11-15T13:53:34;102014.50;;;18.43;100.00
12801;BME280;6464;42.494;27.470;2022-11-15T13:56:13;101968.53;;;17.39;100.00
12801;BME280;6464;42.494;27.470;2022-11-15T13:58:57;101956.06;;;16.69;100.00
12801;BME280;6464;42.494;27.470;2022-11-15T14:01:41;101991.03;;;15.72;100.00
12801;BME280;6464;42.494;27.470;2022-11-15T14:04:31;101914.59;;;15.80;100.00
12801;BME280;6464;42.494;27.470;2022-11-15T14:07:19;101846.63;;;14.20;100.00
12801;BME280;6464;42.494;27.470;2022-11-15T14:10:25;101967.69;;;14.87;100.00
12801;BME280;6464;42.494;27.470;2022-11-15T14:13:26;101901.03;;;13.88;100.00
12801;BME280;6464;42.494;27.470;2022-11-15T14:18:42;101819.59;;;13.30;100.00
12801;BME280;6464;42.494;27.470;2022-11-15T14:23:50;101837.13;;;13.39;100.00
12801;BME280;6464;42.494;27.470;2022-11-15T14:26:42;101788.88;;;13.09;100.00
12801;BME280;6464;42.494;27.470;2022-11-15T14:29:28;101631.06;;;12.22;100.00
12801;BME280;6464;42.494;27.470;2022-11-15T14:37:49;101654.13;;;12.11;100.00
12801;BME280;6464;42.494;27.470;2022-11-15T14:40:43;101573.47;;;11.66;100.00
12801;BME280;6464;42.494;27.470;2022-11-15T14:43:26;101674.22;;;12.27;100.00
12801;BME280;6464;42.494;27.470;2022-11-15T14:48:34;101558.59;;;11.54;100.00
12801;BME280;6464;42.494;27.470;2022-11-15T14:51:12;101525.34;;;11.30;100.00
12801;BME280;6464;42.494;27.470;2022-11-15T14:53:42;101509.56;;;11.24;100.00
12801;BME280;6464;42.494;27.470;2022-11-15T14:56:25;101570.91;;;11.56;100.00
12801;BME280;6464;42.494;27.470;2022-11-15T14:59:04;101612.94;;;11.84;100.00
12801;BME280;6464;42.494;27.470;2022-11-15T15:01:36;101634.91;;;11.89;100.00
12801;BME280;6464;42.494;27.470;2022-11-15T15:04:09;101656.06;;;11.91;100.00
12801;BME280;6464;42.494;27.470;2022-11-15T15:06:41;101584.94;;;11.60;100.00
12801;BME280;6464;42.494;27.470;2022-11-15T15:09:10;101479.94;;;10.88;100.00
12801;BME280;6464;42.494;27.470;2022-11-15T15:11:42;101607.66;;;11.86;100.00
12801;BME280;6464;42.494;27.470;2022-11-15T15:14:16;101605.03;;;11.78;100.00
12801;BME280;6464;42.494;27.470;2022-11-15T15:16:46;101483.34;;;10.99;100.00
12801;BME280;6464;42.494;27.470;2022-11-15T15:19:33;101486.00;;;10.99;100.00
12801;BME280;6464;42.494;27.470;2022-11-15T15:22:01;101489.50;;;11.01;100.00
12801;BME280;6464;42.494;27.470;2022-11-15T15:24:30;101456.25;;;10.79;100.00
12801;BME280;6464;42.494;27.470;2022-11-15T15:27:17;101431.84;;;10.51;100.00
12801;BME280;6464;42.494;27.470;2022-11-15T15:29:48;101585.16;;;11.36;100.00
12801;BME280;6464;42.494;27.470;2022-11-15T15:32:25;101560.53;;;11.33;100.00
12801;BME280;6464;42.494;27.470;2022-11-15T15:34:57;101462.31;;;10.90;100.00
12801;BME280;6464;42.494;27.470;2022-11-15T15:37:28;101492.22;;;10.94;100.00
12801;BME280;6464;42.494;27.470;2022-11-15T15:40:01;101410.75;;;10.49;100.00
12801;BME280;6464;42.494;27.470;2022-11-15T15:42:46;101491.34;;;10.87;100.00
12801;BME280;6464;42.494;27.470;2022-11-15T15:45:19;101455.38;;;10.77;100.00
12801;BME280;6464;42.494;27.470;2022-11-15T15:50:36;101449.38;;;10.60;100.00
12801;BME280;6464;42.494;27.470;2022-11-15T15:53:10;101467.81;;;10.58;100.00
12801;BME280;6464;42.494;27.470;2022-11-15T15:55:43;101447.63;;;10.52;100.00
12801;BME280;6464;42.494;27.470;2022-11-15T15:58:16;101441.53;;;10.46;100.00
12801;BME280;6464;42.494;27.470;2022-11-15T16:00:47;101459.94;;;10.53;100.00
12801;BME280;6464;42.494;27.470;2022-11-15T16:03:22;101549.34;;;10.96;100.00
12801;BME280;6464;42.494;27.470;2022-11-15T16:05:51;101529.09;;;11.01;100.00
12801;BME280;6464;42.494;27.470;2022-11-15T16:08:21;101390.69;;;10.18;100.00
12801;BME280;6464;42.494;27.470;2022-11-15T16:11:07;101430.13;;;10.39;100.00
12801;BME280;6464;42.494;27.470;2022-11-15T16:13:44;101381.97;;;10.11;100.00
12801;BME280;6464;42.494;27.470;2022-11-15T16:16:19;101527.31;;;11.05;100.00
12801;BME280;6464;42.494;27.470;2022-11-15T16:18:56;101369.66;;;10.09;100.00
12801;BME280;6464;42.494;27.470;2022-11-15T16:21:42;101440.59;;;10.54;100.00
12801;BME280;6464;42.494;27.470;2022-11-15T16:24:46;101353.00;;;10.03;100.00
12801;BME280;6464;42.494;27.470;2022-11-15T16:27:40;101445.78;;;10.67;100.00
12801;BME280;6464;42.494;27.470;2022-11-15T16:30:22;101472.91;;;10.82;100.00
12801;BME280;6464;42.494;27.470;2022-11-15T16:33:11;101355.56;;;10.14;100.00
12801;BME280;6464;42.494;27.470;2022-11-15T16:35:40;101385.41;;;10.27;100.00
12801;BME280;6464;42.494;27.470;2022-11-15T16:38:16;101351.16;;;10.24;100.00
12801;BME280;6464;42.494;27.470;2022-11-15T16:40:51;101533.31;;;11.24;100.00
12801;BME280;6464;42.494;27.470;2022-11-15T16:43:21;101416.84;;;10.56;100.00
12801;BME280;6464;42.494;27.470;2022-11-15T16:46:11;101355.50;;;10.29;100.00
12801;BME280;6464;42.494;27.470;2022-11-15T16:48:40;101434.28;;;10.78;100.00
12801;BME280;6464;42.494;27.470;2022-11-15T16:51:09;101416.72;;;10.73;100.00
12801;BME280;6464;42.494;27.470;2022-11-15T16:53:42;101308.22;;;10.00;100.00
12801;BME280;6464;42.494;27.470;2022-11-15T17:24:25;101296.25;;;9.46;100.00
12801;BME280;6464;42.494;27.470;2022-11-15T17:26:53;101419.75;;;10.12;100.00
12801;BME280;6464;42.494;27.470;2022-11-15T17:29:35;101294.53;;;9.33;100.00
12801;BME280;6464;42.494;27.470;2022-11-15T17:32:08;101411.00;;;10.00;100.00
12801;BME280;6464;42.494;27.470;2022-11-15T17:34:36;101401.25;;;10.21;100.00
12801;BME280;6464;42.494;27.470;2022-11-15T18:32:57;101294.75;;;8.48;100.00
12801;BME280;6464;42.494;27.470;2022-11-15T18:35:27;101278.97;;;8.27;100.00
12801;BME280;6464;42.494;27.470;2022-11-15T18:37:57;101353.44;;;8.89;100.00
12801;BME280;6464;42.494;27.470;2022-11-15T19:00:42;101335.94;;;8.46;100.00
12801;BME280;6464;42.494;27.470;2022-11-15T19:03:13;101221.16;;;7.75;100.00
12801;BME280;6464;42.494;27.470;2022-11-15T19:05:42;101285.09;;;8.03;100.00
12801;BME280;6464;42.494;27.470;2022-11-15T19:08:10;101341.19;;;8.39;100.00
12801;BME280;6464;42.494;27.470;2022-11-15T19:10:37;101292.09;;;8.22;100.00
12801;BME280;6464;42.494;27.470;2022-11-15T19:13:04;101302.66;;;8.38;100.00
12801;BME280;6464;42.494;27.470;2022-11-15T19:15:31;101298.22;;;8.34;100.00
12801;BME280;6464;42.494;27.470;2022-11-15T19:18:00;101325.41;;;8.49;100.00
12801;BME280;6464;42.494;27.470;2022-11-15T19:20:27;101353.47;;;8.61;100.00
12801;BME280;6464;42.494;27.470;2022-11-15T19:22:54;101311.41;;;8.38;100.00
12801;BME280;6464;42.494;27.470;2022-11-15T19:25:22;101187.00;;;7.63;100.00
12801;BME280;6464;42.494;27.470;2022-11-15T19:27:53;101350.81;;;8.60;100.00
12801;BME280;6464;42.494;27.470;2022-11-15T19:30:20;101273.72;;;8.18;100.00
12801;BME280;6464;42.494;27.470;2022-11-15T19:32:48;101298.22;;;8.21;100.00
12801;BME280;6464;42.494;27.470;2022-11-15T19:35:16;101211.50;;;7.68;100.00
12801;BME280;6464;42.494;27.470;2022-11-15T19:37:44;101243.03;;;7.83;100.00
12801;BME280;6464;42.494;27.470;2022-11-15T19:40:11;101228.97;;;7.58;100.00
12801;BME280;6464;42.494;27.470;2022-11-15T19:42:38;101257.03;;;7.75;100.00
12801;BME280;6464;42.494;27.470;2022-11-15T19:45:06;101300.81;;;7.97;100.00
12801;BME280;6464;42.494;27.470;2022-11-15T19:47:33;101274.47;;;7.59;100.00
12801;BME280;6464;42.494;27.470;2022-11-15T19:50:00;101295.56;;;7.83;100.00
12801;BME280;6464;42.494;27.470;2022-11-15T19:52:29;101349.00;;;8.08;100.00
12801;BME280;6464;42.494;27.470;2022-11-15T19:54:56;101244.69;;;7.43;100.00
12801;BME280;6464;42.494;27.470;2022-11-15T19:57:23;101202.66;;;7.17;100.00
12801;BME280;6464;42.494;27.470;2022-11-15T19:59:51;101211.44;;;7.31;100.00
12801;BME280;6464;42.494;27.470;2022-11-15T20:02:18;101285.03;;;7.69;100.00
12801;BME280;6464;42.494;27.470;2022-11-15T20:04:45;101340.22;;;7.91;100.00
12801;BME280;6464;42.494;27.470;2022-11-15T20:07:13;101271.84;;;7.46;100.00
12801;BME280;6464;42.494;27.470;2022-11-15T20:09:42;101303.38;;;7.68;100.00
12801;BME280;6464;42.494;27.470;2022-11-15T20:12:10;101244.69;;;7.35;100.00
12801;BME280;6464;42.494;27.470;2022-11-15T20:14:38;101178.13;;;7.03;100.00
12801;BME280;6464;42.494;27.470;2022-11-15T20:17:07;101238.56;;;7.42;100.00
12801;BME280;6464;42.494;27.470;2022-11-15T20:19:43;101169.41;;;7.07;100.00
12801;BME280;6464;42.494;27.470;2022-11-15T20:22:11;101250.91;;;7.69;100.00
12801;BME280;6464;42.494;27.470;2022-11-15T20:24:49;101212.34;;;7.48;100.00
12801;BME280;6464;42.494;27.470;2022-11-15T20:27:17;101236.00;;;7.55;100.00